Latest Coastal Weather Observations for Red Rocks Point

IDW60701

Issued at 12:33 am WST Tuesday 28 March 2017 (issued every 10 minutes, with the page automatically refreshed every 10 minutes)

About coastal observations | Map of coastal stations | Coastal observations for WA | Marine services | Other Formats
Station Details ID: 011053 Name: RED ROCKS POINT Lat: -32.20 Lon: 127.53 Height: 3.1 m
Data from the previous 72 hours. | See also: Recent months at Red Rocks Point
Date/Time
WST
Temp
°C
Wind Pressure Rain since
9am
mm
Weather Cloud Vis
km
Sea
Height
m
Swell
Dir  Spd
kts
Gust
kts
hPa Trend Height
m
Period
s
Dir
28/12:30am 12.2 NNW 7 8 1018.0 - 0.0 - - - - - - -
28/12:00am 12.2 NNW 9 10 1018.2 - 0.0 - - - - - - -
 
Date/Time
WST
Temp
°C
Wind Pressure Rain since
9am
mm
Weather Cloud Vis
km
Sea
Height
m
Swell
Dir  Spd
kts
Gust
kts
hPa Trend Height
m
Period
s
Dir
27/11:30pm 12.2 NNW 8 11 1018.5 - 0.0 - - - - - - -
27/11:00pm 12.9 CALM 0 0 1018.5 - 0.0 - - - - - - -
27/10:30pm 13.6 NNW 4 6 1018.9 - 0.0 - - - - - - -
27/10:00pm 15.3 SE 4 6 1019.0 - 0.0 - - - - - - -
27/09:30pm 17.6 SSE 5 7 1019.3 - 0.0 - - - - - - -
27/09:00pm 18.2 S 9 11 1019.4 - 0.0 - - - - - - -
27/08:30pm 18.2 S 10 13 1019.4 - 0.0 - - - - - - -
27/08:00pm 18.3 S 9 11 1019.5 - 0.0 - - - - - - -
27/07:30pm 18.2 SSW 9 11 1019.2 - 0.0 - - - - - - -
27/07:00pm 18.2 SSW 8 10 1018.9 - 0.0 - - - - - - -
27/06:30pm 18.0 SW 7 11 1018.8 - 0.0 - - - - - - -
27/06:00pm 18.2 SSW 7 11 1018.7 - 0.0 - - - - - - -
27/05:30pm 18.6 SSW 8 11 1018.5 - 0.0 - - - - - - -
27/05:00pm 19.4 SSW 8 14 1018.3 - 0.0 - - - - - - -
27/04:30pm 20.2 SW 9 12 1018.4 - 0.0 - - - - - - -
27/04:00pm 20.6 SSW 10 15 1018.6 - 0.0 - - - - - - -
27/03:30pm 21.4 SSW 10 14 1018.5 - 0.0 - - - - - - -
27/03:00pm 21.5 SSW 12 16 1018.6 - 0.0 - - - - - - -
27/02:30pm 21.8 SSW 11 15 1018.7 - 0.0 - - - - - - -
27/02:00pm 22.4 SSW 10 14 1018.6 - 0.0 - - - - - - -
27/01:30pm 22.3 SSW 10 13 1018.9 - 0.0 - - - - - - -
27/01:00pm 22.6 SSW 9 12 1019.2 - 0.0 - - - - - - -
27/12:30pm 22.5 SSW 9 12 1019.5 - 0.0 - - - - - - -
27/12:00pm 22.7 S 10 15 1019.8 - 0.0 - - - - - - -
27/11:30am 22.3 SSW 12 15 1020.0 - 0.0 - - - - - - -
27/11:00am 23.2 SSW 11 15 1020.3 - 0.0 - - - - - - -
27/10:30am 21.7 SW 11 16 1020.2 - 0.0 - - - - - - -
27/10:00am 21.4 SW 12 17 1020.1 - 0.0 - - - - - - -
27/09:30am 22.6 SW 10 16 1020.1 - 0.0 - - - - - - -
27/09:00am 22.0 SSW 12 19 1020.2 - 0.0 - - - - - - -
27/08:30am 21.2 SW 13 19 1020.1 - 0.0 - - - - - - -
27/08:00am 20.8 SW 14 19 1020.0 - 0.0 - - - - - - -
27/07:30am 20.3 SW 14 19 1019.8 - 0.0 - - - - - - -
27/07:00am 19.4 SW 13 17 1019.6 - 0.0 - - - - - - -
27/06:30am 18.6 SW 10 16 1019.2 - 0.0 - - - - - - -
27/06:00am 18.2 SW 12 18 1018.6 - 0.0 - - - - - - -
27/05:30am 18.5 WSW 12 18 1018.5 - 0.0 - - - - - - -
27/05:00am 18.4 WSW 14 22 1018.3 - 0.0 - - - - - - -
27/04:30am 18.7 SW 12 18 1017.9 - 0.0 - - - - - - -
27/04:00am 18.8 WSW 13 21 1017.5 - 0.0 - - - - - - -
27/03:30am 18.7 SW 14 21 1017.2 - 0.0 - - - - - - -
27/03:00am 18.7 SW 14 21 1016.8 - 0.0 - - - - - - -
27/02:30am 18.8 SW 15 21 1016.4 - 0.0 - - - - - - -
27/02:00am 18.7 SW 13 21 1016.1 - 0.0 - - - - - - -
27/01:30am 18.9 SW 14 20 1015.8 - 0.0 - - - - - - -
27/01:00am 18.9 SW 13 19 1015.7 - 0.0 - - - - - - -
27/12:30am 18.9 SW 13 18 1015.7 - 0.0 - - - - - - -
27/12:00am 19.1 SW 14 20 1015.9 - 0.0 - - - - - - -
 
Date/Time
WST
Temp
°C
Wind Pressure Rain since
9am
mm
Weather Cloud Vis
km
Sea
Height
m
Swell
Dir  Spd
kts
Gust
kts
hPa Trend Height
m
Period
s
Dir
26/11:30pm 19.3 SW 14 23 1015.6 - 0.0 - - - - - - -
26/11:00pm 19.4 SW 14 22 1015.7 - 0.0 - - - - - - -
26/10:30pm 19.6 SW 15 22 1015.3 - 0.0 - - - - - - -
26/10:28pm 19.5 SW 15 25 1015.3 - 0.0 - - - - - - -
26/10:00pm 19.8 SW 16 23 1015.1 - 0.0 - - - - - - -
26/09:30pm 19.9 SW 15 22 1015.0 - 0.0 - - - - - - -
26/09:00pm 20.0 SW 14 20 1014.8 - 0.0 - - - - - - -
26/08:30pm 20.0 SW 15 23 1014.6 - 0.0 - - - - - - -
26/08:00pm 20.0 SW 17 25 1014.1 - 0.0 - - - - - - -
26/07:30pm 20.2 SW 17 24 1013.5 - 0.0 - - - - - - -
26/07:00pm 20.3 SW 18 26 1012.9 - 0.0 - - - - - - -
26/06:30pm 20.7 SW 19 27 1012.0 - 0.0 - - - - - - -
26/06:01pm 21.0 SW 15 25 1011.2 - 0.0 - - - - - - -
26/06:00pm 21.2 SW 15 21 1011.1 - 0.0 - - - - - - -
26/05:51pm 21.3 SW 15 25 1010.8 - 0.0 - - - - - - -
26/05:30pm 21.4 SW 17 23 1010.0 - 0.0 - - - - - - -
26/05:00pm 21.5 SW 17 25 1009.0 - 0.0 - - - - - - -
26/04:38pm 22.6 SW 15 29 1008.2 - 0.0 - - - - - - -
26/04:30pm 23.5 SW 12 19 1007.8 - 0.0 - - - - - - -
26/04:00pm 24.9 SW 8 11 1006.6 - 0.0 - - - - - - -
26/03:30pm 25.4 SW 12 17 1006.1 - 0.0 - - - - - - -
26/03:00pm 25.5 SW 11 18 1005.6 - 0.0 - - - - - - -
26/02:30pm 26.5 SW 12 19 1005.4 - 0.0 - - - - - - -
26/02:00pm 25.9 SW 11 15 1005.1 - 0.0 - - - - - - -
26/01:30pm 26.6 SW 12 16 1004.9 - 0.0 - - - - - - -
26/01:00pm 30.0 WSW 8 14 1004.6 - 0.0 - - - - - - -
26/12:30pm 29.5 W 12 19 1004.7 - 0.0 - - - - - - -
26/12:00pm 28.4 WSW 9 14 1004.8 - 0.0 - - - - - - -
26/11:30am 26.5 SW 12 17 1005.0 - 0.0 - - - - - - -
26/11:00am 29.2 W 10 17 1005.2 - 0.0 - - - - - - -
26/10:30am 28.3 WNW 12 19 1005.4 - 0.0 - - - - - - -
26/10:00am 27.8 WNW 11 20 1005.4 - 0.0 - - - - - - -
26/09:30am 27.0 NW 12 20 1005.4 - 0.0 - - - - - - -
26/09:00am 25.9 NNW 11 17 1005.2 - 4.4 - - - - - - -
26/08:30am 24.5 N 10 16 1005.3 - 4.4 - - - - - - -
26/08:00am 23.0 N 8 13 1005.4 - 4.4 - - - - - - -
26/07:30am 21.8 N 7 10 1005.9 - 4.4 - - - - - - -
26/07:00am 20.9 WNW 5 6 1006.3 - 4.4 - - - - - - -
26/06:30am 20.7 N 5 7 1006.0 - 4.4 - - - - - - -
26/06:00am 20.3 NE 8 10 1005.7 - 4.4 - - - - - - -
26/05:30am 20.5 NE 11 14 1005.6 - 4.4 - - - - - - -
26/05:00am 20.7 NE 9 11 1005.6 - 4.4 - - - - - - -
26/04:30am 21.1 ENE 15 18 1005.7 - 4.4 - - - - - - -
26/04:00am 21.0 E 13 15 1005.9 - 4.4 - - - - - - -
26/03:30am 21.0 ENE 15 18 1006.0 - 4.4 - - - - - - -
26/03:00am 21.0 E 16 19 1006.2 - 4.4 - - - - - - -
26/02:30am 21.0 E 15 18 1006.7 - 4.4 - - - - - - -
26/02:00am 21.0 E 16 20 1007.3 - 4.4 - - - - - - -
26/01:30am 21.0 ESE 15 17 1007.8 - 4.4 - - - - - - -
26/01:00am 21.0 ESE 14 17 1008.4 - 4.4 - - - - - - -
26/12:30am 21.1 ESE 13 16 1008.9 - 4.4 - - - - - - -
26/12:00am 21.0 ESE 12 14 1008.9 - 4.4 - - - - - - -
 
Date/Time
WST
Temp
°C
Wind Pressure Rain since
9am
mm
Weather Cloud Vis
km
Sea
Height
m
Swell
Dir  Spd
kts
Gust
kts
hPa Trend Height
m
Period
s
Dir
25/11:30pm 21.0 ESE 11 13 1009.3 - 4.4 - - - - - - -
25/11:00pm 21.0 SE 10 11 1009.7 - 4.4 - - - - - - -
25/10:30pm 21.0 ESE 9 10 1010.1 - 4.4 - - - - - - -
25/10:00pm 21.0 E 10 14 1010.3 - 4.4 - - - - - - -
25/09:30pm 21.0 E 13 15 1010.2 - 4.4 - - - - - - -
25/09:00pm 21.0 ENE 13 16 1010.4 - 4.4 - - - - - - -
25/08:30pm 21.0 ENE 11 13 1011.0 - 4.4 - - - - - - -
25/08:00pm 21.0 ENE 12 14 1011.0 - 4.4 - - - - - - -
25/07:30pm 21.0 E 11 13 1011.2 - 4.4 - - - - - - -
25/07:00pm 21.0 ESE 13 16 1010.8 - 4.4 - - - - - - -
25/06:30pm 20.8 E 13 16 1010.5 - 4.4 - - - - - - -
25/06:00pm 20.6 ESE 13 16 1010.5 - 4.4 - - - - - - -
25/05:30pm 20.6 ESE 12 14 1010.7 - 4.4 - - - - - - -
25/05:00pm 20.5 ESE 10 11 1010.8 - 4.4 - - - - - - -
25/04:30pm 20.5 ESE 8 11 1010.8 - 4.2 - - - - - - -
25/04:00pm 20.5 ESE 12 14 1010.1 - 4.2 - - - - - - -
25/03:30pm 20.5 E 8 11 1010.8 - 3.4 - - - - - - -
25/03:00pm 20.5 NNE 5 6 1011.7 - 3.2 Recent precip. - - - - - -
25/02:30pm 20.6 ENE 9 11 1011.0 - 3.2 - - - - - - -
25/02:00pm 20.3 E 12 14 1011.0 - 3.0 - - - - - - -
25/01:30pm 20.1 E 10 12 1011.3 - 3.0 - - - - - - -
25/01:00pm 20.5 ESE 12 13 1011.3 - 3.0 - - - - - - -
25/12:30pm 20.4 ESE 13 16 1011.7 - 2.8 - - - - - - -
25/12:00pm 20.2 ESE 13 15 1011.5 - 2.8 Recent precip. - - - - - -
25/11:30am 20.4 ESE 11 12 1012.2 - 2.6 - - - - - - -
25/11:00am 20.0 ENE 7 10 1013.5 - 1.8 - - - - - - -
25/10:30am 20.2 ENE 10 11 1013.7 - 0.8 - - - - - - -
25/10:00am 19.9 ESE 9 11 1013.6 - 0.6 - - - - - - -
25/09:30am 19.4 ESE 7 10 1013.9 - 0.2 - - - - - - -
25/09:00am 19.3 SE 6 7 1014.2 - 7.4 Recent precip. - - - - - -
25/08:30am 19.6 SE 4 6 1014.5 - 7.2 - - - - - - -
25/08:00am 18.9 CALM 0 0 1014.5 - 6.8 - - - - - - -
25/07:30am 19.0 N 5 7 1014.8 - 5.8 - - - - - - -
25/07:00am 18.8 CALM 0 0 1013.7 - 5.2 - - - - - - -
25/06:30am 18.5 CALM 0 0 1014.2 - 5.0 - - - - - - -
25/06:00am 18.3 N 5 7 1013.7 - 4.6 Recent precip. - - - - - -
25/05:30am 18.3 NW 3 4 1013.8 - 4.0 - - - - - - -
25/05:00am 18.4 CALM 0 0 1013.3 - 3.8 - - - - - - -
25/04:30am 18.7 CALM 0 0 1013.8 - 3.2 - - - - - - -
25/04:00am 18.9 CALM 0 0 1013.2 - 2.8 - - - - - - -
25/03:30am 19.2 CALM 0 0 1013.4 - 2.6 - - - - - - -
25/03:00am 19.5 N 4 8 1013.4 - 2.4 Rain - - - - - -
25/02:30am 19.5 NE 4 6 1012.8 - 2.2 - - - - - - -
25/02:00am 19.4 ENE 3 6 1013.4 - 2.0 - - - - - - -
25/01:30am 19.7 ENE 1 5 1013.7 - 1.6 - - - - - - -
25/01:00am 20.0 E 5 6 1014.2 - 1.2 - - - - - - -

Other Formats:

Comma delimited format used in spreadsheet applications
http://www.bom.gov.au/fwo/IDW60701/IDW60701.94644.axf

JavaScript Object Notation format (JSON) in row-major order
http://www.bom.gov.au/fwo/IDW60701/IDW60701.94644.json